Time;durP1;ratioP1;P1;durP2;ratioP2;P2;SDS_P1;SDS_P2;PMS_P1;PMS_P2;Temp;Humidity;BMP_temperature;BMP_pressure;BME280_temperature;BME280_humidity;BME280_pressure;Samples;Min_cycle;Max_cycle;Signal;HPM_P1;HPM_P2
2022/10/30 00:08:43;;;;;;;14.85;6.35;;;;;;;13.02;100.00;101588.97;6237558;22;20412;-90
2022/10/30 00:11:12;;;;;;;19.52;6.30;;;;;;;12.75;100.00;101560.22;6249454;22;20034;-90
2022/10/30 00:17:02;;;;;;;21.27;6.18;;;;;;;12.70;100.00;101577.09;6248686;23;20018;-91
2022/10/30 00:27:51;;;;;;;16.75;6.85;;;;;;;12.46;100.00;101579.25;6248637;22;20020;-91
2022/10/30 00:34:01;;;;;;;24.80;10.90;;;;;;;12.44;100.00;101578.69;6127004;23;20020;-91
2022/10/30 00:36:29;;;;;;;16.98;9.38;;;;;;;12.39;100.00;101578.66;6137719;23;20014;-90
2022/10/30 00:48:16;;;;;;;19.27;9.10;;;;;;;12.30;100.00;101578.28;6234655;22;20020;-90
2022/10/30 02:10:55;;;;;;;21.33;7.63;;;;;;;11.43;100.00;101569.84;6267247;22;20274;-95
2022/10/30 02:13:21;;;;;;;18.20;7.30;;;;;;;11.47;100.00;101592.47;6270273;22;19992;-95
2022/10/30 02:15:58;;;;;;;18.27;7.25;;;;;;;11.50;100.00;101597.34;6242239;23;20067;-94
2022/10/30 02:18:54;;;;;;;21.20;7.32;;;;;;;11.52;100.00;101604.06;6263223;23;20007;-94
2022/10/30 02:26:37;;;;;;;15.35;6.80;;;;;;;11.43;100.00;101592.09;6215072;22;20490;-95
2022/10/30 02:45:21;;;;;;;17.65;7.18;;;;;;;11.08;100.00;101611.94;6219158;22;20022;-96
2022/10/30 02:54:29;;;;;;;15.00;6.83;;;;;;;11.02;100.00;101618.28;6232838;22;20319;-96
2022/10/30 02:57:29;;;;;;;14.90;6.57;;;;;;;10.85;100.00;101594.94;6226926;23;20008;-95
2022/10/30 03:04:16;;;;;;;15.88;7.65;;;;;;;10.81;100.00;101587.59;6059502;23;20006;-94
2022/10/30 05:09:14;;;;;;;19.80;7.25;;;;;;;10.74;100.00;101544.84;6244153;22;20016;-92
2022/10/30 05:11:40;;;;;;;17.13;6.85;;;;;;;10.77;100.00;101568.50;6244197;22;20058;-93
2022/10/30 05:14:05;;;;;;;11.47;7.07;;;;;;;10.85;100.00;101578.84;6244703;23;20004;-93
2022/10/30 05:16:33;;;;;;;18.63;7.53;;;;;;;10.86;100.00;101580.44;6245399;23;20004;-93
2022/10/30 05:31:42;;;;;;;18.83;7.13;;;;;;;10.56;100.00;101578.03;6235473;22;21180;-94
2022/10/30 05:36:56;;;;;;;14.60;6.93;;;;;;;10.32;100.00;101562.00;6044407;23;20066;-95
2022/10/30 05:39:31;;;;;;;16.70;7.63;;;;;;;10.33;100.00;101577.03;6064206;23;20255;-94
2022/10/30 05:45:33;;;;;;;15.90;7.70;;;;;;;10.15;100.00;101568.13;6245515;23;20471;-94
2022/10/30 05:48:40;;;;;;;16.00;6.70;;;;;;;10.27;100.00;101597.56;6190278;23;20008;-92
2022/10/30 05:52:06;;;;;;;19.75;7.20;;;;;;;10.12;100.00;101584.66;6231195;22;20012;-91
2022/10/30 06:08:55;;;;;;;13.52;6.78;;;;;;;9.93;100.00;101575.13;6092602;23;20040;-92
2022/10/30 06:18:14;;;;;;;17.25;7.82;;;;;;;9.82;100.00;101574.94;6021872;23;20015;-92
2022/10/30 06:30:53;;;;;;;15.90;7.30;;;;;;;9.69;100.00;101564.44;5927144;24;20027;-92
2022/10/30 06:33:19;;;;;;;20.17;7.27;;;;;;;9.84;100.00;101588.06;5890924;24;20290;-92
2022/10/30 06:35:47;;;;;;;15.02;6.90;;;;;;;9.82;100.00;101590.97;6123886;23;20009;-92
2022/10/30 06:38:13;;;;;;;16.17;7.57;;;;;;;9.83;100.00;101589.09;6157510;23;20081;-93
2022/10/30 06:40:39;;;;;;;22.23;7.83;;;;;;;9.83;100.00;101587.25;6243979;22;20011;-90
2022/10/30 06:43:04;;;;;;;13.90;6.87;;;;;;;9.78;100.00;101587.13;6243600;23;20243;-91
2022/10/30 06:45:29;;;;;;;19.80;7.67;;;;;;;9.75;100.00;101584.94;6242550;23;20035;-91
2022/10/30 06:47:54;;;;;;;12.20;6.57;;;;;;;9.76;100.00;101591.91;6242910;23;20600;-91
2022/10/30 06:50:21;;;;;;;15.13;7.03;;;;;;;9.78;100.00;101592.50;6242177;22;20046;-91
2022/10/30 06:52:47;;;;;;;18.45;7.55;;;;;;;9.79;100.00;101575.38;6242717;23;20000;-90
2022/10/30 06:55:12;;;;;;;17.38;8.48;;;;;;;9.79;100.00;101578.06;6243236;23;20024;-91
2022/10/30 06:57:38;;;;;;;20.87;7.50;;;;;;;9.81;100.00;101593.88;6243698;23;20015;-91
2022/10/30 07:00:06;;;;;;;17.77;7.30;;;;;;;9.79;100.00;101590.63;6242490;22;20035;-92
2022/10/30 07:02:32;;;;;;;15.13;7.13;;;;;;;9.81;100.00;101588.53;6242441;23;20004;-92
2022/10/30 07:04:57;;;;;;;14.07;7.38;;;;;;;9.84;100.00;101588.91;6242637;23;20015;-89
2022/10/30 07:07:22;;;;;;;18.10;7.90;;;;;;;9.87;100.00;101578.75;6242027;23;20004;-88
2022/10/30 07:09:48;;;;;;;18.67;9.03;;;;;;;9.93;100.00;101573.28;6241281;22;20057;-89
2022/10/30 07:12:13;;;;;;;18.90;8.17;;;;;;;9.99;100.00;101571.53;6241613;23;20035;-89
2022/10/30 07:14:38;;;;;;;16.30;8.17;;;;;;;10.06;100.00;101574.06;6242441;23;20008;-88
2022/10/30 07:17:06;;;;;;;18.98;8.00;;;;;;;10.07;100.00;101571.13;6240076;23;20004;-89
2022/10/30 07:19:32;;;;;;;18.50;7.30;;;;;;;10.14;100.00;101573.69;6239509;22;20438;-88
2022/10/30 07:21:59;;;;;;;14.33;7.40;;;;;;;10.19;100.00;101571.13;6241996;23;20240;-88
2022/10/30 07:24:24;;;;;;;15.50;7.68;;;;;;;10.24;100.00;101576.59;6241568;23;20000;-88
2022/10/30 07:26:49;;;;;;;17.37;7.53;;;;;;;10.29;100.00;101581.22;6242787;23;20008;-88
2022/10/30 07:29:15;;;;;;;20.42;8.18;;;;;;;10.28;100.00;101567.03;6243112;23;20004;-88
2022/10/30 07:31:40;;;;;;;17.73;8.23;;;;;;;10.37;100.00;101580.88;6244432;22;20032;-89
2022/10/30 07:34:05;;;;;;;17.50;7.50;;;;;;;10.41;100.00;101576.66;6254299;23;20011;-89
2022/10/30 07:36:31;;;;;;;18.43;7.67;;;;;;;10.46;100.00;101578.66;6253293;23;20015;-89
2022/10/30 07:38:56;;;;;;;18.93;7.97;;;;;;;10.50;100.00;101573.63;6242338;23;20376;-89
2022/10/30 07:41:21;;;;;;;24.97;9.13;;;;;;;10.60;100.00;101579.16;6242220;22;20012;-89
2022/10/30 07:43:47;;;;;;;20.17;8.70;;;;;;;10.69;100.00;101587.63;6243311;23;20239;-89
2022/10/30 07:46:13;;;;;;;19.83;8.03;;;;;;;10.71;100.00;101582.84;6243725;23;20008;-90
2022/10/30 07:48:39;;;;;;;17.35;7.68;;;;;;;10.72;100.00;101577.28;6244333;23;20008;-88
2022/10/30 07:51:05;;;;;;;19.13;8.15;;;;;;;10.75;100.00;101576.78;6244999;22;20015;-88
2022/10/30 07:53:31;;;;;;;17.45;8.23;;;;;;;10.82;100.00;101575.81;6245181;23;20028;-88
2022/10/30 07:55:57;;;;;;;19.07;8.13;;;;;;;10.86;100.00;101576.97;6246169;23;20030;-89
2022/10/30 07:58:22;;;;;;;20.60;8.37;;;;;;;10.92;100.00;101581.38;6248216;23;20008;-89
2022/10/30 08:00:48;;;;;;;15.67;8.27;;;;;;;10.91;100.00;101569.03;6259831;22;20318;-91
2022/10/30 08:03:14;;;;;;;15.73;8.13;;;;;;;10.96;100.00;101582.50;6256980;23;20004;-89
2022/10/30 08:05:39;;;;;;;17.95;8.40;;;;;;;10.97;100.00;101576.06;6260790;23;20332;-90
2022/10/30 08:08:05;;;;;;;22.23;8.70;;;;;;;11.08;100.00;101581.63;6259601;23;20050;-90
2022/10/30 08:10:33;;;;;;;21.97;8.33;;;;;;;11.14;100.00;101578.78;6259717;22;20024;-87
2022/10/30 08:12:59;;;;;;;19.05;8.35;;;;;;;11.22;100.00;101577.56;6267313;23;20034;-88
2022/10/30 08:15:24;;;;;;;19.33;8.85;;;;;;;11.36;100.00;101580.75;6253735;23;20012;-89
2022/10/30 08:17:50;;;;;;;21.43;8.37;;;;;;;11.43;100.00;101572.53;6244669;23;20015;-89
2022/10/30 08:20:18;;;;;;;20.63;9.60;;;;;;;11.55;100.00;101573.25;6244625;22;20554;-89
2022/10/30 08:22:48;;;;;;;21.88;8.82;;;;;;;11.64;100.00;101576.31;6244358;23;20008;-89
2022/10/30 08:25:14;;;;;;;17.98;8.45;;;;;;;11.70;100.00;101561.09;6244794;23;20062;-89
2022/10/30 08:27:52;;;;;;;16.92;8.60;;;;;;;11.79;100.00;101560.41;6245123;23;20026;-89
2022/10/30 08:30:18;;;;;;;22.02;8.60;;;;;;;11.89;100.00;101562.44;6245756;22;20004;-90
2022/10/30 08:32:43;;;;;;;19.00;8.52;;;;;;;11.95;100.00;101564.13;6245414;23;20091;-89
2022/10/30 08:35:09;;;;;;;17.27;8.90;;;;;;;12.01;100.00;101581.16;6246532;23;20038;-90
2022/10/30 08:37:34;;;;;;;16.90;8.63;;;;;;;12.05;100.00;101582.28;6250872;23;20034;-89
2022/10/30 08:39:59;;;;;;;18.70;8.67;;;;;;;12.15;100.00;101580.78;6261373;22;20363;-89
2022/10/30 08:42:24;;;;;;;21.60;8.05;;;;;;;12.20;100.00;101588.91;6258118;23;20000;-86
2022/10/30 08:44:50;;;;;;;17.93;8.80;;;;;;;12.30;100.00;101583.66;6255807;23;20008;-87
2022/10/30 08:47:15;;;;;;;22.57;9.07;;;;;;;12.41;100.00;101569.28;6256832;23;20019;-88
2022/10/30 08:49:40;;;;;;;16.13;7.70;;;;;;;12.46;100.00;101570.41;6263754;22;19996;-87
2022/10/30 08:52:08;;;;;;;17.70;8.17;;;;;;;12.52;100.00;101572.88;6256722;23;19996;-88
2022/10/30 08:54:34;;;;;;;19.38;8.27;;;;;;;12.59;100.00;101574.56;6245028;23;20112;-92
2022/10/30 08:56:59;;;;;;;18.47;8.37;;;;;;;12.67;100.00;101574.09;6244834;23;20425;-88
2022/10/30 08:59:24;;;;;;;16.83;8.50;;;;;;;12.75;100.00;101581.72;6244554;22;20436;-88
2022/10/30 09:01:49;;;;;;;22.20;9.30;;;;;;;12.82;100.00;101574.25;6247726;23;20036;-88
2022/10/30 09:04:18;;;;;;;19.47;10.07;;;;;;;12.98;100.00;101585.16;6244516;23;20000;-90
2022/10/30 09:06:43;;;;;;;18.88;8.35;;;;;;;13.06;100.00;101582.00;6251065;23;20019;-90
2022/10/30 09:09:08;;;;;;;19.03;8.93;;;;;;;13.21;100.00;101577.81;6246763;23;20375;-88
2022/10/30 09:11:36;;;;;;;19.30;8.48;;;;;;;13.40;100.00;101579.06;6247844;22;19997;-90
2022/10/30 09:14:01;;;;;;;21.00;7.70;;;;;;;13.54;100.00;101584.00;6220759;23;20054;-89
2022/10/30 09:16:29;;;;;;;19.90;8.70;;;;;;;13.65;100.00;101585.69;6248370;23;20267;-92
2022/10/30 09:18:55;;;;;;;20.38;8.30;;;;;;;13.82;100.00;101579.34;6244598;23;20472;-90
2022/10/30 09:21:20;;;;;;;22.47;8.03;;;;;;;13.96;100.00;101575.09;6244493;22;20000;-90
2022/10/30 09:23:46;;;;;;;20.20;8.50;;;;;;;14.13;100.00;101574.06;6245295;23;20329;-87
2022/10/30 09:26:20;;;;;;;18.23;7.80;;;;;;;14.33;100.00;101567.97;6244832;23;20000;-88
2022/10/30 09:29:17;;;;;;;14.33;7.67;;;;;;;14.42;100.00;101538.59;6245174;23;20291;-89
2022/10/30 09:31:43;;;;;;;17.42;7.55;;;;;;;14.65;100.00;101548.06;6245346;23;20001;-89
2022/10/30 09:34:11;;;;;;;17.70;7.40;;;;;;;14.79;100.00;101537.63;6246536;23;20340;-91
2022/10/30 09:36:45;;;;;;;17.92;7.03;;;;;;;15.01;100.00;101552.69;6250331;23;20305;-91
2022/10/30 09:39:20;;;;;;;16.05;7.18;;;;;;;15.21;100.00;101571.59;6266349;22;20008;-91
2022/10/30 09:42:06;;;;;;;14.00;6.53;;;;;;;15.31;100.00;101564.59;6250117;23;20008;-90
2022/10/30 09:45:09;;;;;;;17.15;6.78;;;;;;;15.40;100.00;101566.47;6246138;23;20011;-91
2022/10/30 09:47:49;;;;;;;16.58;6.47;;;;;;;15.37;100.00;101555.38;6244851;23;20360;-90
2022/10/30 09:50:24;;;;;;;16.40;7.25;;;;;;;15.51;100.00;101569.97;6243388;22;20047;-90
2022/10/30 09:53:20;;;;;;;15.40;6.33;;;;;;;15.53;100.00;101586.69;6242395;23;20054;-89
2022/10/30 09:56:00;;;;;;;20.13;6.63;;;;;;;15.51;100.00;101591.56;6241645;23;20287;-90
2022/10/30 09:58:29;;;;;;;17.80;6.35;;;;;;;15.45;100.00;101603.44;6244189;23;20011;-89
2022/10/30 10:01:01;;;;;;;18.23;6.95;;;;;;;15.43;100.00;101605.59;6243213;22;20001;-90
2022/10/30 10:03:48;;;;;;;15.88;6.68;;;;;;;15.41;100.00;101602.38;6244056;23;20185;-90
2022/10/30 10:06:19;;;;;;;14.43;6.40;;;;;;;15.40;100.00;101603.44;6245009;23;20424;-88
2022/10/30 10:09:12;;;;;;;17.70;6.70;;;;;;;15.41;100.00;101603.19;6246757;23;20004;-92
2022/10/30 10:11:43;;;;;;;15.70;5.90;;;;;;;15.38;100.00;101602.91;6246577;23;20035;-91
2022/10/30 10:14:15;;;;;;;14.65;5.88;;;;;;;15.38;100.00;101597.50;6244825;23;20178;-89
2022/10/30 10:16:43;;;;;;;12.90;6.53;;;;;;;15.45;100.00;101593.44;6247233;23;20068;-89
2022/10/30 10:19:11;;;;;;;18.95;6.80;;;;;;;15.56;100.00;101588.03;6243537;22;20008;-87
2022/10/30 10:21:48;;;;;;;17.02;6.35;;;;;;;15.66;100.00;101584.50;6241781;23;20030;-87
2022/10/30 10:24:21;;;;;;;18.70;6.45;;;;;;;15.75;100.00;101580.16;6242870;23;20032;-87
2022/10/30 10:27:09;;;;;;;18.10;6.47;;;;;;;15.79;100.00;101591.25;6241952;23;20091;-88
2022/10/30 10:29:49;;;;;;;17.08;6.30;;;;;;;15.91;100.00;101589.06;6242525;22;20004;-87
2022/10/30 10:32:48;;;;;;;14.88;6.20;;;;;;;16.03;100.00;101596.88;6242037;23;20019;-87
2022/10/30 10:35:35;;;;;;;21.27;6.27;;;;;;;16.15;99.97;101589.25;6243585;23;20375;-89
2022/10/30 10:38:19;;;;;;;13.70;5.33;;;;;;;16.30;100.00;101579.44;6242137;23;20723;-88
2022/10/30 10:41:10;;;;;;;20.23;5.63;;;;;;;16.44;98.74;101580.44;6242631;22;20071;-86
2022/10/30 10:43:51;;;;;;;26.63;6.43;;;;;;;16.54;99.72;101578.78;6243205;23;20004;-85
2022/10/30 10:46:19;;;;;;;21.95;6.22;;;;;;;16.61;98.34;101576.56;6243022;23;20000;-85
2022/10/30 10:48:50;;;;;;;15.30;5.80;;;;;;;16.68;97.59;101574.34;6242558;23;20687;-90
2022/10/30 10:51:20;;;;;;;17.75;5.18;;;;;;;16.79;95.57;101583.19;6241249;22;20080;-90
2022/10/30 10:53:56;;;;;;;15.05;5.30;;;;;;;16.87;96.46;101584.50;6244739;23;20011;-90
2022/10/30 10:56:28;;;;;;;21.17;5.47;;;;;;;16.92;95.23;101579.84;6244071;23;20380;-90
2022/10/30 11:02:05;;;;;;;18.98;5.35;;;;;;;17.07;93.83;101580.88;6241053;22;20403;-90
2022/10/30 11:09:15;;;;;;;;;;;;;;;;;;;;;
2022/10/30 11:15:55;;;;;;;15.40;4.97;;;;;;;17.61;92.06;101580.91;5976893;23;20024;-89
2022/10/30 11:18:21;;;;;;;14.33;5.00;;;;;;;17.59;88.57;101548.66;5993068;23;20100;-86
2022/10/30 11:21:08;;;;;;;21.50;5.50;;;;;;;17.78;90.50;101561.47;6034203;23;20258;-86
2022/10/30 11:23:39;;;;;;;14.15;5.10;;;;;;;17.78;88.74;101569.59;6190189;23;20333;-85
2022/10/30 11:26:27;;;;;;;12.87;4.70;;;;;;;17.83;91.42;101566.84;6213916;23;20040;-85
2022/10/30 11:29:13;;;;;;;18.87;5.27;;;;;;;17.88;90.92;101560.53;6212027;23;20243;-85
2022/10/30 11:31:41;;;;;;;15.43;5.07;;;;;;;17.91;86.41;101557.25;6213759;23;20083;-85
2022/10/30 11:34:18;;;;;;;12.90;5.22;;;;;;;17.93;88.90;101557.78;6212700;23;20001;-86
2022/10/30 11:36:43;;;;;;;19.05;5.95;;;;;;;17.99;86.71;101567.47;6213724;23;20009;-86
2022/10/30 11:39:26;;;;;;;17.03;4.80;;;;;;;18.09;86.18;101569.25;6214027;23;20441;-85
2022/10/30 11:42:11;;;;;;;14.30;5.22;;;;;;;18.23;87.77;101567.47;6213749;23;20062;-86
2022/10/30 11:44:48;;;;;;;17.38;5.30;;;;;;;18.30;85.17;101565.19;6214303;23;20005;-85
2022/10/30 11:47:16;;;;;;;17.48;4.93;;;;;;;18.39;83.87;101565.34;6212856;23;20059;-85
2022/10/30 11:49:56;;;;;;;11.50;5.10;;;;;;;18.50;83.04;101565.19;6212592;23;20016;-86
2022/10/30 11:52:24;;;;;;;12.90;5.13;;;;;;;18.55;81.78;101556.97;6212904;23;20692;-85
2022/10/30 11:55:09;;;;;;;12.10;4.88;;;;;;;18.68;83.26;101563.56;6212291;23;20004;-85
2022/10/30 11:57:37;;;;;;;11.43;4.93;;;;;;;18.75;81.15;101556.66;6213398;23;20008;-86
2022/10/30 12:00:06;;;;;;;22.08;5.28;;;;;;;18.79;80.74;101551.47;6212666;23;20007;-85
2022/10/30 12:02:41;;;;;;;15.38;5.07;;;;;;;18.86;80.88;101559.22;6186775;23;20111;-84
2022/10/30 12:05:26;;;;;;;17.92;5.03;;;;;;;18.91;82.57;101553.69;6212665;23;20004;-82
2022/10/30 12:08:15;;;;;;;14.53;4.93;;;;;;;18.98;83.08;101565.03;6187274;23;20009;-87
2022/10/30 12:10:50;;;;;;;11.33;4.13;;;;;;;18.98;81.35;101551.44;6218461;23;20255;-88
2022/10/30 12:13:18;;;;;;;19.77;5.30;;;;;;;18.97;79.60;101551.75;6215485;23;20009;-87
2022/10/30 12:15:45;;;;;;;17.48;5.03;;;;;;;19.00;80.57;101551.97;6213289;23;20058;-88
2022/10/30 12:18:26;;;;;;;12.68;4.63;;;;;;;19.12;82.14;101554.22;6186756;23;20035;-88
2022/10/30 12:25:00;;;;;;;;;;;;;;;;;;;;;
2022/10/30 12:27:45;;;;;;;10.93;4.80;;;;;;;19.26;80.43;101527.06;6120848;23;20093;-90
2022/10/30 12:31:10;;;;;;;19.67;4.88;;;;;;;19.46;81.14;101538.63;6164530;22;20028;-90
2022/10/30 12:37:30;;;;;;;13.10;4.43;;;;;;;19.65;80.34;101533.13;6244359;23;20348;-90
2022/10/30 12:47:44;;;;;;;;;;;;;;;;;;;;;
2022/10/30 14:05:06;;;;;;;10.37;4.20;;;;;;;19.33;76.72;101524.75;6245173;23;20366;-92
2022/10/30 14:07:31;;;;;;;14.18;4.50;;;;;;;19.34;73.67;101523.66;6131874;23;20013;-88
2022/10/30 14:10:23;;;;;;;17.10;4.30;;;;;;;19.29;74.36;101501.22;6125540;23;20332;-87
2022/10/30 14:13:15;;;;;;;17.15;4.30;;;;;;;19.50;73.12;101516.00;6123872;23;20006;-89
2022/10/30 14:15:43;;;;;;;16.67;3.70;;;;;;;19.52;72.64;101515.69;6188032;23;20012;-87
2022/10/30 14:18:11;;;;;;;15.30;4.07;;;;;;;19.49;72.61;101519.84;6245398;23;20479;-88
2022/10/30 14:20:37;;;;;;;14.90;4.60;;;;;;;19.46;72.14;101534.03;6244413;23;20036;-88
2022/10/30 14:23:14;;;;;;;15.55;3.90;;;;;;;19.46;73.34;101519.63;6244434;23;20057;-88
2022/10/30 14:25:41;;;;;;;11.65;3.75;;;;;;;19.50;73.01;101526.06;6244561;23;20008;-87
2022/10/30 14:28:20;;;;;;;15.77;3.63;;;;;;;19.46;72.71;101522.34;6243196;23;20003;-86
2022/10/30 14:30:45;;;;;;;14.87;4.10;;;;;;;19.41;72.84;101531.41;6215946;23;20246;-87
2022/10/30 14:33:33;;;;;;;10.13;4.05;;;;;;;19.42;74.43;101541.16;6244561;23;20015;-88
2022/10/30 14:36:19;;;;;;;18.45;4.40;;;;;;;19.32;73.82;101533.22;6246219;23;20643;-88
2022/10/30 14:38:57;;;;;;;11.53;4.00;;;;;;;19.35;72.84;101530.69;6244022;23;20056;-88
2022/10/30 14:41:36;;;;;;;24.80;4.17;;;;;;;19.42;72.74;101527.56;6245197;23;20326;-88
2022/10/30 14:44:20;;;;;;;12.63;3.67;;;;;;;19.51;72.58;101539.38;6244928;23;19996;-88
2022/10/30 14:46:56;;;;;;;11.60;3.67;;;;;;;19.49;71.93;101536.16;6244432;23;20016;-89
2022/10/30 14:50:05;;;;;;;16.60;4.25;;;;;;;19.47;72.75;101538.34;6242630;23;20067;-87
2022/10/30 14:53:21;;;;;;;14.48;3.80;;;;;;;19.35;73.01;101529.91;6151228;23;20006;-89
2022/10/30 14:56:02;;;;;;;13.95;4.00;;;;;;;19.29;73.26;101536.53;6111346;23;20050;-89
2022/10/30 14:58:38;;;;;;;17.63;4.20;;;;;;;19.18;72.70;101531.25;6244586;23;20438;-87
2022/10/30 15:01:03;;;;;;;11.57;4.28;;;;;;;19.14;73.61;101541.13;6216499;23;20012;-87
2022/10/30 15:03:50;;;;;;;18.33;4.90;;;;;;;19.08;74.99;101545.03;6245771;23;20380;-87
2022/10/30 15:06:28;;;;;;;20.27;4.43;;;;;;;18.97;74.22;101551.75;6245552;23;20004;-87
2022/10/30 15:09:19;;;;;;;12.05;4.65;;;;;;;18.90;75.17;101554.78;6244492;23;20042;-87
2022/10/30 15:12:09;;;;;;;10.70;4.03;;;;;;;18.83;76.26;101557.88;6186468;23;20067;-88
2022/10/30 15:14:42;;;;;;;15.27;4.10;;;;;;;18.74;75.89;101554.25;6244727;23;20004;-88
2022/10/30 15:17:27;;;;;;;20.20;4.28;;;;;;;18.70;75.95;101564.09;6245188;23;20027;-87
2022/10/30 15:19:52;;;;;;;11.40;4.23;;;;;;;18.61;76.01;101570.19;6243807;23;20004;-88
2022/10/30 15:22:23;;;;;;;16.88;4.38;;;;;;;18.51;75.13;101562.19;6245386;23;20004;-88
2022/10/30 15:24:50;;;;;;;14.27;4.70;;;;;;;18.40;76.19;101568.88;6244877;23;20004;-88
2022/10/30 15:27:22;;;;;;;8.27;4.18;;;;;;;18.29;76.94;101579.84;6244088;23;20009;-88
2022/10/30 15:29:54;;;;;;;14.27;4.47;;;;;;;18.10;77.75;101574.41;6243833;23;20089;-88
2022/10/30 15:32:21;;;;;;;11.73;4.30;;;;;;;18.00;78.98;101578.06;6217548;23;20007;-88
2022/10/30 15:35:01;;;;;;;16.23;4.47;;;;;;;17.85;79.55;101580.91;6218113;23;20448;-88
2022/10/30 15:37:27;;;;;;;13.52;4.10;;;;;;;17.67;80.41;101585.16;6244770;23;20078;-88
2022/10/30 15:40:29;;;;;;;16.25;4.32;;;;;;;17.60;81.18;101598.28;6216524;23;20440;-88
2022/10/30 15:42:56;;;;;;;12.80;4.67;;;;;;;17.45;82.25;101610.84;6092607;23;20006;-88
2022/10/30 15:45:31;;;;;;;11.77;5.03;;;;;;;17.37;82.77;101604.16;6215203;23;20312;-87
2022/10/30 15:48:05;;;;;;;15.13;4.80;;;;;;;17.23;83.31;101601.31;6244816;23;20313;-87
2022/10/30 15:50:32;;;;;;;13.57;4.68;;;;;;;17.19;84.08;101616.50;6245708;23;20000;-85
2022/10/30 15:52:59;;;;;;;16.98;5.22;;;;;;;17.09;84.91;101624.69;6261006;23;20004;-87
2022/10/30 15:55:30;;;;;;;14.60;4.80;;;;;;;17.01;85.88;101636.94;6247279;23;20010;-89
2022/10/30 15:58:00;;;;;;;17.77;4.72;;;;;;;16.91;86.33;101634.28;6244299;23;20306;-87
2022/10/30 16:00:33;;;;;;;17.53;5.73;;;;;;;16.86;87.51;101640.53;6244263;23;20023;-88
2022/10/30 16:03:04;;;;;;;14.57;5.13;;;;;;;16.83;87.52;101641.09;6244512;23;20235;-87
2022/10/30 16:05:30;;;;;;;17.38;5.07;;;;;;;16.78;87.93;101639.25;6245624;23;20007;-87
2022/10/30 16:07:58;;;;;;;17.20;5.47;;;;;;;16.76;88.08;101652.25;6244732;23;20083;-88
2022/10/30 16:10:30;;;;;;;15.40;5.53;;;;;;;16.72;88.86;101655.75;6245119;23;20004;-88
2022/10/30 16:12:56;;;;;;;15.43;5.18;;;;;;;16.66;89.29;101654.97;6245993;23;20007;-88
2022/10/30 16:15:31;;;;;;;14.50;5.20;;;;;;;16.67;89.53;101666.63;6246269;23;20008;-88
2022/10/30 16:18:06;;;;;;;14.80;5.40;;;;;;;16.59;90.25;101673.44;6248678;23;20725;-88
2022/10/30 16:20:33;;;;;;;15.70;6.00;;;;;;;16.45;91.14;101668.59;6213677;23;19996;-88
2022/10/30 16:23:00;;;;;;;19.33;6.10;;;;;;;16.42;91.81;101671.88;6268930;23;20039;-89
2022/10/30 16:25:26;;;;;;;15.35;6.13;;;;;;;16.38;92.42;101675.41;6269620;23;20038;-89
2022/10/30 16:27:52;;;;;;;14.90;6.35;;;;;;;16.35;93.64;101682.97;6269602;23;19996;-89
2022/10/30 16:30:18;;;;;;;19.77;7.03;;;;;;;16.34;94.10;101677.84;6243949;23;20004;-89
2022/10/30 16:32:53;;;;;;;21.40;7.30;;;;;;;16.34;93.96;101675.16;6270253;23;20014;-89
2022/10/30 16:35:21;;;;;;;19.55;7.00;;;;;;;16.30;95.04;101682.19;6270349;22;20008;-89
2022/10/30 16:43:48;;;;;;;22.80;8.40;;;;;;;16.24;95.94;101678.69;6225415;22;20307;-87
2022/10/30 16:46:16;;;;;;;20.15;8.90;;;;;;;16.18;97.28;101675.22;6218261;23;20059;-87
2022/10/30 16:49:32;;;;;;;22.13;8.05;;;;;;;16.16;97.15;101685.50;6236117;23;19997;-84
2022/10/30 16:52:37;;;;;;;22.60;8.20;;;;;;;16.14;98.39;101694.97;6216050;23;20004;-88
2022/10/30 16:55:27;;;;;;;16.77;6.60;;;;;;;16.10;98.59;101693.88;6202937;23;20079;-88
2022/10/30 16:58:01;;;;;;;14.55;6.70;;;;;;;16.07;98.94;101700.63;6215372;23;20032;-87
2022/10/30 17:04:03;;;;;;;18.33;5.50;;;;;;;15.81;100.00;101665.53;6198836;23;20059;-94
2022/10/30 17:26:40;;;;;;;13.00;4.67;;;;;;;15.32;100.00;101676.91;6244588;22;20016;-88
2022/10/30 17:29:41;;;;;;;10.80;4.33;;;;;;;15.36;100.00;101710.38;6244447;22;20239;-87
2022/10/30 17:39:25;;;;;;;9.43;4.53;;;;;;;15.07;100.00;101722.47;6261082;22;20078;-91
2022/10/30 17:42:18;;;;;;;14.90;4.32;;;;;;;14.91;100.00;101731.59;6127033;23;20070;-88
2022/10/30 17:44:46;;;;;;;12.77;3.70;;;;;;;14.80;100.00;101734.28;6106683;23;20018;-88
2022/10/30 17:47:37;;;;;;;12.57;4.53;;;;;;;14.70;100.00;101718.03;6156277;23;20016;-88
2022/10/30 17:58:11;;;;;;;12.43;4.60;;;;;;;14.51;100.00;101734.66;6066143;23;20015;-87
2022/10/30 18:00:45;;;;;;;11.50;4.77;;;;;;;14.58;100.00;101757.88;6041306;23;20236;-88
2022/10/30 18:03:11;;;;;;;13.85;6.07;;;;;;;14.44;100.00;101749.44;6123399;23;20102;-87
2022/10/30 18:05:38;;;;;;;10.10;5.60;;;;;;;14.42;100.00;101754.31;6227360;23;20008;-87
2022/10/30 18:11:13;;;;;;;13.37;5.40;;;;;;;14.39;100.00;101761.84;6241604;22;20270;-87
2022/10/30 22:13:37;;;;;;;13.38;6.90;;;;;;;12.21;100.00;101945.22;6262281;22;20011;-94
2022/10/30 22:24:47;;;;;;;12.68;7.40;;;;;;;12.26;100.00;101931.88;6204811;22;20014;-96
2022/10/30 22:30:25;;;;;;;15.27;7.85;;;;;;;12.43;100.00;101958.75;6249703;22;20008;-95
2022/10/30 22:33:23;;;;;;;16.23;7.53;;;;;;;12.42;100.00;101952.56;6269693;22;20031;-94
